Time;durP1;ratioP1;P1;durP2;ratioP2;P2;SDS_P1;SDS_P2;PMS_P1;PMS_P2;Temp;Humidity;BMP_temperature;BMP_pressure;BME280_temperature;BME280_humidity;BME280_pressure;Samples;Min_cycle;Max_cycle;Signal;HPM_P1;HPM_P2
2021/06/25 00:01:49;;;;;;;11.13;9.20;;;;;;;18.10;72.36;100843.94;4883983;28;122294;-76
2021/06/25 00:04:15;;;;;;;12.15;9.18;;;;;;;18.11;72.71;100844.72;4901088;28;98278;-76
2021/06/25 00:06:41;;;;;;;10.48;9.00;;;;;;;18.10;72.86;100846.66;4885051;28;128279;-75
2021/06/25 00:09:07;;;;;;;10.75;9.70;;;;;;;18.13;72.79;100845.25;4884902;28;128143;-75
2021/06/25 00:11:33;;;;;;;10.48;9.48;;;;;;;18.10;72.23;100845.84;4885761;28;117865;-75
2021/06/25 00:13:59;;;;;;;10.07;9.07;;;;;;;18.02;72.69;100850.13;4883839;28;126842;-76
2021/06/25 00:16:25;;;;;;;10.63;9.52;;;;;;;18.05;72.74;100848.72;4902699;28;108750;-75
2021/06/25 00:18:51;;;;;;;10.90;9.70;;;;;;;18.01;72.76;100845.00;4900007;28;125938;-75
2021/06/25 00:21:17;;;;;;;10.90;9.75;;;;;;;18.01;73.21;100845.78;4900114;28;122827;-75
2021/06/25 00:23:43;;;;;;;10.40;9.30;;;;;;;17.96;73.35;100856.81;4884139;28;113865;-75
2021/06/25 00:26:09;;;;;;;10.48;9.50;;;;;;;17.90;73.84;100847.94;4884272;28;127839;-75
2021/06/25 00:28:35;;;;;;;10.95;9.95;;;;;;;17.85;74.00;100849.97;4884404;28;115932;-75
2021/06/25 00:31:01;;;;;;;10.43;9.48;;;;;;;17.83;73.80;100849.47;4902269;28;121698;-75
2021/06/25 00:33:27;;;;;;;11.70;10.60;;;;;;;17.74;75.02;100843.91;4899291;28;128511;-75
2021/06/25 00:35:53;;;;;;;11.00;10.00;;;;;;;17.81;74.97;100840.81;4868155;28;127585;-75
2021/06/25 00:38:20;;;;;;;12.20;10.10;;;;;;;17.84;75.19;100841.00;4884985;28;99143;-75
2021/06/25 00:40:46;;;;;;;11.38;10.23;;;;;;;17.79;75.01;100838.38;4868990;28;98255;-75
2021/06/25 00:43:12;;;;;;;11.80;10.70;;;;;;;17.77;74.72;100832.44;4900074;28;125474;-75
2021/06/25 00:45:38;;;;;;;11.38;10.27;;;;;;;17.80;74.68;100834.53;4902617;28;127064;-76
2021/06/25 00:48:04;;;;;;;11.52;10.38;;;;;;;17.73;74.55;100839.56;4873351;28;128182;-75
2021/06/25 00:50:32;;;;;;;11.07;9.98;;;;;;;17.74;74.60;100835.72;4871334;28;99020;-75
2021/06/25 00:52:59;;;;;;;11.13;10.15;;;;;;;17.67;74.48;100833.41;4902672;28;99322;-75
2021/06/25 00:55:26;;;;;;;11.23;10.23;;;;;;;17.65;74.65;100832.13;4919877;28;98624;-75
2021/06/25 00:57:52;;;;;;;11.60;10.15;;;;;;;17.65;74.78;100832.13;4921380;28;105353;-75
2021/06/25 01:00:19;;;;;;;11.77;10.57;;;;;;;17.53;75.07;100832.66;4902792;28;121777;-75
2021/06/25 01:02:45;;;;;;;11.80;10.60;;;;;;;17.52;74.96;100835.66;4921204;28;98073;-75
2021/06/25 01:05:11;;;;;;;12.40;10.93;;;;;;;17.48;75.48;100827.28;4920502;28;98653;-76
2021/06/25 01:07:37;;;;;;;12.18;10.95;;;;;;;17.52;75.45;100831.00;4919125;28;97800;-75
2021/06/25 01:10:08;;;;;;;11.90;10.82;;;;;;;17.48;75.70;100819.09;4886677;28;111316;-75
2021/06/25 01:12:35;;;;;;;12.35;10.55;;;;;;;17.38;75.90;100817.41;4918968;28;98785;-76
2021/06/25 01:15:01;;;;;;;12.68;11.38;;;;;;;17.26;76.38;100814.41;4868776;28;99842;-75
2021/06/25 01:17:32;;;;;;;13.02;11.57;;;;;;;17.36;76.57;100816.09;4883647;28;126695;-75
2021/06/25 01:19:59;;;;;;;11.90;10.70;;;;;;;17.31;76.21;100810.75;4886808;28;98038;-76
2021/06/25 01:22:36;;;;;;;11.75;10.45;;;;;;;17.34;76.63;100808.25;4919178;28;98271;-76
2021/06/25 01:25:25;;;;;;;11.93;10.82;;;;;;;17.24;76.45;100810.34;4919737;28;98628;-76
2021/06/25 01:27:59;;;;;;;12.05;10.90;;;;;;;17.24;77.03;100808.44;4906136;28;109864;-76
2021/06/25 01:30:28;;;;;;;11.80;10.73;;;;;;;17.37;77.08;100802.19;4888049;28;110667;-76
2021/06/25 01:32:54;;;;;;;11.50;10.38;;;;;;;17.30;76.77;100806.44;4903215;28;98699;-76
2021/06/25 01:35:21;;;;;;;12.05;10.88;;;;;;;17.33;76.90;100797.63;4886031;28;116945;-75
2021/06/25 01:37:47;;;;;;;12.10;11.00;;;;;;;17.29;77.19;100796.63;4903423;28;98115;-76
2021/06/25 01:40:15;;;;;;;13.25;11.50;;;;;;;17.33;77.24;100789.44;4920308;28;118537;-76
2021/06/25 01:42:42;;;;;;;12.45;11.35;;;;;;;17.28;77.29;100795.81;4921311;28;100619;-76
2021/06/25 01:45:14;;;;;;;12.15;11.05;;;;;;;17.29;77.31;100785.72;4901284;28;99001;-76
2021/06/25 01:47:42;;;;;;;13.20;11.35;;;;;;;17.27;77.30;100779.78;4918772;28;99161;-76
2021/06/25 01:50:14;;;;;;;14.70;11.27;;;;;;;17.31;77.39;100783.53;4918932;28;98054;-76
2021/06/25 01:52:52;;;;;;;13.18;11.88;;;;;;;17.25;78.14;100777.38;4887413;28;112676;-76
2021/06/25 01:55:18;;;;;;;12.80;11.50;;;;;;;17.38;77.89;100781.19;4903756;28;98728;-75
2021/06/25 01:57:45;;;;;;;12.82;11.63;;;;;;;17.34;78.62;100781.00;4919740;28;127384;-76
2021/06/25 02:00:11;;;;;;;13.07;11.77;;;;;;;17.31;78.74;100783.53;4893111;28;97986;-76
2021/06/25 02:02:38;;;;;;;13.10;11.85;;;;;;;17.36;78.88;100786.13;4897855;28;111674;-76
2021/06/25 02:05:05;;;;;;;13.52;12.23;;;;;;;17.22;79.09;100775.25;4906873;28;99940;-76
2021/06/25 02:07:31;;;;;;;14.80;13.35;;;;;;;17.18;79.54;100775.06;4871208;28;98804;-77
2021/06/25 02:09:57;;;;;;;13.85;12.55;;;;;;;17.21;79.83;100776.34;4919433;28;104544;-76
2021/06/25 02:12:26;;;;;;;13.60;12.30;;;;;;;17.25;79.56;100769.22;4917753;28;127425;-76
2021/06/25 02:14:53;;;;;;;14.82;13.30;;;;;;;17.18;79.67;100769.63;4902343;28;98089;-76
2021/06/25 02:17:20;;;;;;;15.13;13.63;;;;;;;17.19;79.99;100773.13;4899225;28;100338;-77
2021/06/25 02:19:46;;;;;;;13.45;12.20;;;;;;;17.18;80.02;100777.78;4899516;28;103226;-75
2021/06/25 02:22:12;;;;;;;14.35;12.95;;;;;;;17.13;79.82;100763.44;4903969;28;109979;-76
2021/06/25 02:24:38;;;;;;;14.38;13.00;;;;;;;17.14;79.93;100767.81;4883017;28;99137;-77
2021/06/25 02:27:06;;;;;;;15.13;13.52;;;;;;;17.17;80.09;100767.16;4897989;28;127721;-76
2021/06/25 02:29:32;;;;;;;15.80;14.07;;;;;;;17.11;80.49;100766.47;4889145;28;109390;-77
2021/06/25 02:31:58;;;;;;;14.48;13.15;;;;;;;17.13;80.63;100768.91;4899877;28;99051;-78
2021/06/25 02:34:24;;;;;;;15.55;13.88;;;;;;;17.12;80.19;100756.41;4898258;28;126850;-76
2021/06/25 02:36:50;;;;;;;14.75;13.38;;;;;;;17.08;81.15;100775.25;4849947;28;127397;-76
2021/06/25 02:39:16;;;;;;;13.93;12.65;;;;;;;17.14;80.52;100775.97;4900070;28;120168;-76
2021/06/25 02:41:43;;;;;;;14.95;13.60;;;;;;;17.05;80.87;100773.13;4907765;28;98471;-77
2021/06/25 02:44:09;;;;;;;15.13;13.73;;;;;;;17.09;81.11;100774.13;4917605;28;99080;-76
2021/06/25 02:46:35;;;;;;;14.45;13.05;;;;;;;17.07;80.93;100770.94;4900500;28;127914;-75
2021/06/25 02:49:01;;;;;;;15.60;14.10;;;;;;;17.06;81.15;100772.03;4919990;28;97892;-76
2021/06/25 02:51:27;;;;;;;14.82;13.40;;;;;;;17.05;80.93;100766.88;4916935;28;126662;-76
2021/06/25 02:53:53;;;;;;;14.90;13.50;;;;;;;16.95;81.40;100773.34;4884890;28;128006;-76
2021/06/25 02:56:19;;;;;;;14.43;13.13;;;;;;;16.95;81.62;100761.66;4919546;28;126072;-76
2021/06/25 02:58:45;;;;;;;16.85;15.25;;;;;;;16.97;81.35;100764.88;4885109;28;97724;-76
2021/06/25 03:01:12;;;;;;;15.73;14.23;;;;;;;16.93;81.53;100773.63;4899333;28;127780;-76
2021/06/25 03:03:38;;;;;;;15.98;14.50;;;;;;;17.02;81.48;100778.41;4898681;28;98114;-76
2021/06/25 03:06:04;;;;;;;15.68;14.18;;;;;;;17.00;80.98;100786.84;4882387;28;126278;-76
2021/06/25 03:08:30;;;;;;;16.20;14.70;;;;;;;17.02;81.94;100790.09;4899045;28;98338;-77
2021/06/25 03:10:56;;;;;;;16.42;14.73;;;;;;;16.99;82.71;100781.72;4916285;28;98799;-76
2021/06/25 03:13:22;;;;;;;16.73;15.07;;;;;;;17.06;82.36;100787.59;4901141;28;100834;-75
2021/06/25 03:15:48;;;;;;;16.67;15.15;;;;;;;17.07;82.40;100786.47;4919457;28;97827;-76
2021/06/25 03:18:15;;;;;;;16.70;15.13;;;;;;;17.06;82.49;100784.84;4918277;28;97780;-75
2021/06/25 03:20:41;;;;;;;16.67;15.00;;;;;;;17.09;82.07;100795.13;4885554;28;97999;-76
2021/06/25 03:23:08;;;;;;;17.42;15.90;;;;;;;17.06;82.54;100790.31;4917031;28;119383;-76
2021/06/25 03:25:34;;;;;;;16.70;15.00;;;;;;;17.05;82.35;100797.63;4917107;28;110168;-75
2021/06/25 03:28:00;;;;;;;17.27;15.57;;;;;;;17.03;82.28;100794.44;4902338;28;97917;-76
2021/06/25 03:30:26;;;;;;;18.08;16.38;;;;;;;17.03;82.72;100802.59;4917639;28;98588;-76
2021/06/25 03:32:53;;;;;;;17.33;15.63;;;;;;;17.02;82.12;100809.16;4869040;28;103219;-75
2021/06/25 03:35:19;;;;;;;19.23;17.35;;;;;;;16.95;82.71;100808.75;4884825;28;100561;-75
2021/06/25 03:37:45;;;;;;;18.52;16.77;;;;;;;17.00;82.32;100808.63;4906796;28;117628;-75
2021/06/25 03:40:12;;;;;;;18.65;16.85;;;;;;;16.98;82.59;100808.16;4896563;28;127844;-76
2021/06/25 03:42:39;;;;;;;20.45;18.35;;;;;;;16.93;82.63;100811.75;4897975;28;105449;-75
2021/06/25 03:45:06;;;;;;;19.73;17.80;;;;;;;16.98;82.87;100808.16;4899782;28;98326;-76
2021/06/25 03:47:32;;;;;;;18.67;16.95;;;;;;;17.01;82.69;100812.16;4865049;28;114574;-75
2021/06/25 03:49:58;;;;;;;19.73;17.75;;;;;;;16.88;82.96;100809.13;4865222;28;126360;-75
2021/06/25 03:52:25;;;;;;;18.75;16.90;;;;;;;16.98;82.56;100813.59;4890616;28;126524;-75
2021/06/25 03:54:51;;;;;;;18.65;16.85;;;;;;;17.01;83.14;100804.00;4916628;28;128123;-76
2021/06/25 03:57:17;;;;;;;19.88;17.85;;;;;;;16.99;83.09;100808.97;4918810;28;122734;-75
2021/06/25 03:59:43;;;;;;;19.70;16.92;;;;;;;17.04;82.94;100798.75;4921367;28;126171;-75
2021/06/25 04:02:10;;;;;;;18.55;16.83;;;;;;;17.08;82.61;100798.97;4889251;28;98540;-75
2021/06/25 04:04:39;;;;;;;19.08;17.20;;;;;;;16.90;82.83;100803.41;4903185;28;98937;-75
2021/06/25 04:07:06;;;;;;;20.10;17.80;;;;;;;16.91;82.88;100805.81;4885106;28;105186;-75
2021/06/25 04:09:32;;;;;;;18.48;16.77;;;;;;;16.86;83.27;100803.19;4884568;28;98406;-75
2021/06/25 04:11:58;;;;;;;19.50;17.67;;;;;;;16.89;83.56;100812.66;4902578;28;98444;-75
2021/06/25 04:14:25;;;;;;;18.58;16.67;;;;;;;17.01;82.78;100802.06;4901793;28;120582;-75
2021/06/25 04:16:51;;;;;;;19.67;17.88;;;;;;;17.05;82.35;100805.81;4884413;28;123234;-75
2021/06/25 04:19:17;;;;;;;19.27;17.55;;;;;;;17.08;82.64;100801.69;4902323;28;121585;-75
2021/06/25 04:21:43;;;;;;;18.15;16.40;;;;;;;17.15;82.39;100802.91;4900342;28;119312;-75
2021/06/25 04:24:09;;;;;;;18.15;16.35;;;;;;;17.16;82.17;100799.06;4883457;28;127565;-75
2021/06/25 04:26:37;;;;;;;19.90;17.95;;;;;;;17.04;83.02;100801.47;4902883;28;97993;-76
2021/06/25 04:29:04;;;;;;;18.92;17.13;;;;;;;17.13;82.57;100801.56;4901569;28;98277;-77
2021/06/25 04:31:32;;;;;;;19.60;17.67;;;;;;;17.17;82.43;100800.69;4884221;28;99399;-75
2021/06/25 04:33:58;;;;;;;19.42;17.52;;;;;;;17.29;82.34;100802.06;4912625;28;97751;-75
2021/06/25 04:36:24;;;;;;;19.38;17.48;;;;;;;17.23;82.19;100801.38;4919197;28;122774;-75
2021/06/25 04:38:50;;;;;;;20.25;18.35;;;;;;;17.28;82.58;100800.47;4920832;28;98706;-75
2021/06/25 04:41:16;;;;;;;20.13;18.13;;;;;;;17.28;82.41;100804.00;4919619;28;127542;-76
2021/06/25 04:43:43;;;;;;;19.75;17.85;;;;;;;17.30;82.16;100803.72;4902836;28;126659;-76
2021/06/25 04:46:09;;;;;;;19.58;17.58;;;;;;;17.20;82.39;100801.97;4887463;28;97936;-77
2021/06/25 04:48:35;;;;;;;20.52;18.50;;;;;;;17.32;82.19;100801.47;4888192;28;101608;-75
2021/06/25 04:51:01;;;;;;;19.35;17.67;;;;;;;17.34;81.98;100808.25;4921838;28;98889;-75
2021/06/25 04:53:27;;;;;;;20.15;18.20;;;;;;;17.23;82.25;100798.66;4919631;28;98113;-77
2021/06/25 04:55:53;;;;;;;21.48;19.27;;;;;;;17.28;82.03;100797.75;4904569;28;97856;-77
2021/06/25 04:58:22;;;;;;;22.08;19.83;;;;;;;17.21;82.47;100798.13;4918251;28;128512;-77
2021/06/25 05:00:48;;;;;;;21.25;19.15;;;;;;;17.32;82.38;100804.19;4916941;28;98825;-78
2021/06/25 05:03:14;;;;;;;21.48;19.45;;;;;;;17.34;81.54;100805.50;4898934;28;127111;-76
2021/06/25 05:05:45;;;;;;;22.15;20.15;;;;;;;17.07;82.36;100806.31;4883072;28;121849;-77
2021/06/25 05:08:11;;;;;;;22.38;20.17;;;;;;;17.29;82.73;100807.53;4900774;28;98523;-78
2021/06/25 05:10:37;;;;;;;22.00;19.85;;;;;;;17.33;82.36;100808.53;4900528;28;99202;-78
2021/06/25 05:13:03;;;;;;;20.40;18.50;;;;;;;17.50;81.49;100816.09;4900362;28;97869;-78
2021/06/25 05:15:30;;;;;;;20.80;18.77;;;;;;;17.51;81.71;100823.94;4899315;28;98088;-77
2021/06/25 05:17:56;;;;;;;21.25;19.23;;;;;;;17.52;81.44;100817.38;4899602;28;98464;-78
2021/06/25 05:20:23;;;;;;;21.77;19.63;;;;;;;17.59;81.43;100830.59;4898616;28;128065;-78
2021/06/25 05:22:50;;;;;;;21.48;19.48;;;;;;;17.57;81.08;100819.22;4884234;28;98023;-77
2021/06/25 05:25:16;;;;;;;20.98;19.02;;;;;;;17.39;81.96;100831.84;4899973;28;97850;-77
2021/06/25 05:27:42;;;;;;;21.75;19.67;;;;;;;17.45;81.86;100833.38;4867798;28;98447;-75
2021/06/25 05:30:10;;;;;;;20.60;18.70;;;;;;;17.17;82.51;100835.25;4901847;28;124920;-77
2021/06/25 05:32:36;;;;;;;23.85;21.52;;;;;;;17.26;82.10;100835.38;4899963;28;98043;-75
2021/06/25 05:35:02;;;;;;;22.80;20.60;;;;;;;17.38;81.91;100835.69;4882796;28;120592;-78
2021/06/25 05:37:28;;;;;;;21.90;19.70;;;;;;;17.54;81.78;100845.16;4867507;28;105294;-76
2021/06/25 05:39:55;;;;;;;20.52;18.52;;;;;;;17.50;81.35;100835.97;4908858;28;128147;-76
2021/06/25 05:42:21;;;;;;;23.00;20.80;;;;;;;17.64;81.25;100838.66;4899047;28;125257;-78
2021/06/25 05:44:47;;;;;;;21.85;19.67;;;;;;;17.65;80.75;100840.31;4878666;28;108216;-75
2021/06/25 05:47:13;;;;;;;22.40;20.33;;;;;;;17.63;81.96;100837.88;4902040;28;98903;-75
2021/06/25 05:49:40;;;;;;;21.48;19.52;;;;;;;17.66;80.77;100847.34;4883685;28;98142;-77
2021/06/25 05:52:06;;;;;;;21.67;19.67;;;;;;;17.71;80.58;100841.78;4900063;28;98142;-77
2021/06/25 05:54:32;;;;;;;21.23;19.17;;;;;;;17.73;80.73;100841.50;4901148;28;122764;-74
2021/06/25 05:56:58;;;;;;;22.33;20.10;;;;;;;17.65;80.62;100843.03;4909294;28;120466;-77
2021/06/25 05:59:24;;;;;;;21.50;19.52;;;;;;;17.59;80.66;100849.69;4918578;28;110392;-77
2021/06/25 06:01:51;;;;;;;22.17;19.98;;;;;;;17.61;80.81;100844.75;4919506;28;127412;-75
2021/06/25 06:04:17;;;;;;;24.23;21.92;;;;;;;17.56;80.67;100853.81;4917533;28;97804;-76
2021/06/25 06:06:43;;;;;;;24.02;21.63;;;;;;;17.48;81.13;100853.72;4900657;28;127112;-76
2021/06/25 06:09:09;;;;;;;21.58;19.58;;;;;;;17.58;80.84;100856.25;4881686;28;128421;-76
2021/06/25 06:11:35;;;;;;;23.42;21.08;;;;;;;17.64;80.99;100865.91;4882732;28;127839;-75
2021/06/25 06:14:01;;;;;;;22.48;20.17;;;;;;;17.66;80.43;100856.34;4884339;28;109777;-76
2021/06/25 06:16:27;;;;;;;22.95;20.67;;;;;;;17.64;80.44;100864.03;4883530;28;100301;-74
2021/06/25 06:18:53;;;;;;;22.52;20.52;;;;;;;17.82;79.70;100866.94;4899630;28;98940;-75
2021/06/25 06:21:21;;;;;;;22.77;20.50;;;;;;;17.80;79.95;100870.00;4899380;28;98096;-77
2021/06/25 06:32:09;;;;;;;24.30;21.90;;;;;;;18.06;79.80;100870.22;4896739;28;97937;-75
2021/06/25 06:34:37;;;;;;;23.98;21.73;;;;;;;17.72;80.61;100873.38;4900976;28;98936;-75
2021/06/25 06:37:03;;;;;;;24.58;22.27;;;;;;;18.01;80.14;100875.00;4920132;28;98475;-74
2021/06/25 06:39:29;;;;;;;24.98;22.38;;;;;;;18.05;79.54;100870.53;4916151;28;100449;-75
2021/06/25 06:41:56;;;;;;;24.75;22.38;;;;;;;17.76;80.09;100876.34;4909279;28;97968;-76
2021/06/25 06:44:23;;;;;;;24.85;22.52;;;;;;;18.12;79.61;100881.84;4920168;28;97957;-76
2021/06/25 06:46:49;;;;;;;24.40;22.20;;;;;;;18.13;79.34;100875.25;4904989;28;128587;-76
2021/06/25 06:49:15;;;;;;;24.40;22.10;;;;;;;18.02;79.52;100888.31;4897028;28;127794;-75
2021/06/25 06:51:41;;;;;;;23.85;21.60;;;;;;;18.12;79.18;100873.66;4916441;28;121430;-76
2021/06/25 06:54:07;;;;;;;22.73;20.52;;;;;;;17.98;78.71;100881.84;4916558;28;124077;-75
2021/06/25 06:56:33;;;;;;;22.00;19.80;;;;;;;17.96;79.49;100881.38;4900285;28;98081;-75
2021/06/25 06:59:02;;;;;;;22.63;20.52;;;;;;;18.02;79.32;100882.84;4866316;28;98787;-76
2021/06/25 07:01:30;;;;;;;23.83;21.50;;;;;;;18.08;79.48;100880.84;4914646;28;98135;-75
2021/06/25 07:03:56;;;;;;;21.83;19.85;;;;;;;18.15;79.08;100884.72;4901919;28;97816;-75
2021/06/25 07:06:22;;;;;;;23.40;21.20;;;;;;;18.15;79.52;100886.66;4919278;28;127289;-75
2021/06/25 07:08:48;;;;;;;23.65;21.45;;;;;;;18.35;78.83;100888.09;4900906;28;98493;-75
2021/06/25 07:11:15;;;;;;;22.65;20.55;;;;;;;18.20;78.13;100891.19;4909527;28;97845;-75
2021/06/25 07:13:41;;;;;;;21.02;19.13;;;;;;;18.22;78.53;100888.97;4900353;28;97800;-74
2021/06/25 07:16:07;;;;;;;22.33;20.15;;;;;;;18.26;78.51;100888.03;4897028;28;126168;-74
2021/06/25 07:18:33;;;;;;;22.13;20.13;;;;;;;18.25;78.90;100894.59;4900211;28;97922;-75
2021/06/25 07:21:00;;;;;;;21.80;19.70;;;;;;;18.30;78.65;100885.50;4880866;28;126511;-75
2021/06/25 07:23:26;;;;;;;20.45;18.55;;;;;;;18.32;77.51;100888.72;4901463;28;109061;-75
2021/06/25 07:25:52;;;;;;;21.58;19.38;;;;;;;18.20;78.63;100897.47;4900224;28;97699;-74
2021/06/25 07:28:18;;;;;;;19.85;18.00;;;;;;;18.26;78.89;100904.41;4882413;28;98500;-75
2021/06/25 07:30:44;;;;;;;19.98;18.05;;;;;;;18.04;79.15;100896.19;4911534;28;98092;-75
2021/06/25 07:33:10;;;;;;;19.83;17.90;;;;;;;18.30;78.92;100902.66;4923196;28;97955;-75
2021/06/25 07:35:36;;;;;;;19.30;17.50;;;;;;;18.38;78.86;100895.66;4919461;28;122886;-75
2021/06/25 07:38:02;;;;;;;19.02;17.33;;;;;;;18.51;77.34;100894.00;4923434;28;98269;-75
2021/06/25 07:40:28;;;;;;;19.10;17.30;;;;;;;18.66;76.06;100893.63;4917726;28;127494;-75
2021/06/25 07:42:55;;;;;;;18.83;17.02;;;;;;;18.85;75.91;100886.06;4921774;28;122278;-74
2021/06/25 07:45:21;;;;;;;19.25;17.55;;;;;;;19.00;76.23;100893.06;4919704;28;127036;-74
2021/06/25 07:47:47;;;;;;;17.83;15.95;;;;;;;19.12;75.44;100887.00;4922549;28;98039;-74
2021/06/25 07:50:15;;;;;;;17.83;16.23;;;;;;;19.49;73.64;100885.72;4920670;28;98173;-73
2021/06/25 07:52:42;;;;;;;18.13;16.30;;;;;;;19.87;73.38;100882.44;4904438;28;97929;-73
2021/06/25 07:55:10;;;;;;;17.30;15.70;;;;;;;20.26;72.11;100883.44;4910442;28;107473;-73
2021/06/25 07:57:36;;;;;;;15.50;14.10;;;;;;;20.18;70.35;100881.50;4907169;28;98960;-73
2021/06/25 08:00:04;;;;;;;15.25;13.85;;;;;;;20.89;68.42;100879.19;4921227;28;127549;-74
2021/06/25 08:02:30;;;;;;;14.32;13.10;;;;;;;21.38;68.55;100882.41;4922019;28;102662;-73
2021/06/25 08:04:56;;;;;;;15.02;13.68;;;;;;;20.97;68.44;100875.59;4920537;28;127508;-74
2021/06/25 08:07:22;;;;;;;13.88;12.57;;;;;;;20.96;67.22;100879.47;4920953;28;128015;-73
2021/06/25 08:09:49;;;;;;;12.43;11.30;;;;;;;21.12;65.36;100873.47;4920273;28;98286;-74
2021/06/25 08:12:16;;;;;;;12.45;11.30;;;;;;;21.13;65.88;100872.31;4905244;28;109813;-73
2021/06/25 08:14:42;;;;;;;11.77;10.65;;;;;;;21.75;63.37;100875.25;4920687;28;129498;-73
2021/06/25 08:17:08;;;;;;;10.68;9.68;;;;;;;24.18;56.22;100860.72;4922097;28;98924;-72
2021/06/25 08:19:35;;;;;;;10.20;9.30;;;;;;;25.47;51.31;100873.19;4911516;28;98983;-74
2021/06/25 08:22:01;;;;;;;9.57;8.68;;;;;;;24.31;55.40;100881.56;4902512;28;97961;-74
2021/06/25 08:24:27;;;;;;;10.15;9.30;;;;;;;23.28;58.72;100879.19;4902012;28;99730;-73
2021/06/25 08:26:54;;;;;;;11.52;10.43;;;;;;;23.08;59.08;100877.34;4899940;28;127970;-73
2021/06/25 08:29:20;;;;;;;8.90;8.10;;;;;;;22.40;58.73;100873.00;4884307;28;99159;-74
2021/06/25 08:31:48;;;;;;;7.93;7.13;;;;;;;21.79;60.00;100869.91;4902208;28;123285;-73
2021/06/25 08:34:14;;;;;;;8.68;7.88;;;;;;;21.39;61.51;100869.50;4900457;28;98591;-74
2021/06/25 08:36:40;;;;;;;9.10;8.27;;;;;;;21.64;60.80;100867.75;4902464;28;112514;-73
2021/06/25 08:39:06;;;;;;;9.48;8.48;;;;;;;22.04;60.75;100857.94;4910565;28;98059;-74
2021/06/25 08:41:34;;;;;;;9.23;8.32;;;;;;;23.54;54.45;100862.34;4902812;28;113143;-73
2021/06/25 08:44:00;;;;;;;9.45;8.52;;;;;;;23.15;54.99;100861.09;4885850;28;97955;-71
2021/06/25 08:46:30;;;;;;;9.73;7.40;;;;;;;22.92;56.53;100861.50;4892944;28;116821;-70
2021/06/25 08:48:56;;;;;;;8.18;7.43;;;;;;;22.78;57.33;100867.28;4919315;28;98602;-73
2021/06/25 08:51:22;;;;;;;9.48;7.55;;;;;;;22.78;58.24;100864.53;4890579;28;122958;-73
2021/06/25 08:53:49;;;;;;;7.80;7.05;;;;;;;22.41;58.09;100862.84;4900702;28;99121;-71
2021/06/25 08:56:15;;;;;;;8.63;7.18;;;;;;;21.97;59.88;100868.66;4885417;28;98310;-73
2021/06/25 08:58:41;;;;;;;7.45;6.75;;;;;;;21.85;59.68;100863.09;4899729;28;128462;-73
2021/06/25 09:01:07;;;;;;;7.50;6.80;;;;;;;22.06;59.81;100852.91;4901609;28;123654;-71
2021/06/25 09:03:34;;;;;;;8.35;7.40;;;;;;;22.35;58.68;100862.22;4906212;28;99097;-71
2021/06/25 09:06:14;;;;;;;7.25;6.47;;;;;;;22.81;57.16;100863.06;4917644;28;99625;-73
2021/06/25 09:08:42;;;;;;;7.45;6.18;;;;;;;23.44;55.68;100866.34;4902742;28;98632;-72
2021/06/25 09:11:31;;;;;;;10.15;7.00;;;;;;;24.22;52.02;100861.63;4914191;28;98097;-73
2021/06/25 09:14:01;;;;;;;7.20;6.53;;;;;;;23.48;55.57;100867.25;4921232;28;98519;-73
2021/06/25 09:16:30;;;;;;;11.80;9.90;;;;;;;22.95;55.59;100868.25;4901896;28;99082;-73
2021/06/25 09:19:16;;;;;;;7.95;6.88;;;;;;;22.25;56.95;100868.94;4919208;28;110854;-71
2021/06/25 09:22:03;;;;;;;32.15;7.25;;;;;;;21.79;57.14;100861.69;4906172;28;97754;-71
2021/06/25 09:24:29;;;;;;;5.00;4.13;;;;;;;21.80;57.43;100866.03;4920397;28;98040;-75
2021/06/25 09:27:17;;;;;;;7.85;4.22;;;;;;;21.53;58.27;100862.63;4921138;28;98835;-74
2021/06/25 09:29:45;;;;;;;5.03;3.83;;;;;;;21.20;58.67;100858.91;4904247;28;126032;-72
2021/06/25 09:32:12;;;;;;;4.97;4.45;;;;;;;20.89;59.59;100860.00;4887349;28;98340;-71
2021/06/25 09:34:50;;;;;;;7.38;4.80;;;;;;;20.44;60.95;100867.81;4918595;28;127858;-74
2021/06/25 09:37:18;;;;;;;8.20;4.88;;;;;;;20.59;62.57;100864.56;4919544;28;98404;-72
2021/06/25 09:40:02;;;;;;;11.95;6.32;;;;;;;20.37;62.55;100867.50;4920529;28;97945;-74
2021/06/25 09:42:28;;;;;;;20.38;7.65;;;;;;;20.56;62.86;100862.50;4917187;28;97972;-72
2021/06/25 09:45:03;;;;;;;15.25;9.50;;;;;;;20.71;63.47;100863.91;4903012;28;98600;-75
2021/06/25 09:47:33;;;;;;;11.10;9.95;;;;;;;20.59;64.34;100870.88;4913941;28;98575;-72
2021/06/25 09:50:12;;;;;;;12.70;11.40;;;;;;;20.70;63.84;100865.03;4910978;28;108525;-73
2021/06/25 09:52:55;;;;;;;31.15;13.10;;;;;;;20.27;64.55;100860.41;4918830;28;98365;-72
2021/06/25 09:55:48;;;;;;;17.30;10.88;;;;;;;20.27;66.12;100872.16;4917661;28;98405;-74
2021/06/25 10:01:23;;;;;;;11.38;10.27;;;;;;;20.67;65.45;100876.63;4901034;28;97849;-72
2021/06/25 10:03:53;;;;;;;11.82;10.63;;;;;;;20.02;67.54;100871.03;4912892;28;97821;-72
2021/06/25 10:06:24;;;;;;;10.57;9.57;;;;;;;20.43;66.69;100868.91;4909502;28;98760;-72
2021/06/25 10:08:50;;;;;;;10.63;9.68;;;;;;;20.55;65.37;100872.66;4895241;28;98629;-72
2021/06/25 10:11:19;;;;;;;11.32;10.23;;;;;;;20.08;66.30;100871.66;4901780;28;116195;-74
2021/06/25 10:13:46;;;;;;;10.43;9.48;;;;;;;20.38;65.60;100869.91;4918195;28;97960;-74
2021/06/25 10:16:12;;;;;;;18.52;10.35;;;;;;;20.43;65.70;100866.19;4918651;28;98319;-73
2021/06/25 10:18:44;;;;;;;16.42;9.68;;;;;;;20.86;65.03;100868.88;4918394;28;98974;-74
2021/06/25 10:21:14;;;;;;;15.32;9.38;;;;;;;21.14;63.83;100862.97;4920536;28;98480;-73
2021/06/25 10:23:45;;;;;;;31.00;10.32;;;;;;;20.95;63.84;100872.41;4920764;28;97981;-74
2021/06/25 10:26:11;;;;;;;10.20;8.23;;;;;;;21.32;62.79;100867.25;4919281;28;99900;-75
2021/06/25 10:28:43;;;;;;;7.45;6.65;;;;;;;21.27;63.25;100867.44;4901963;28;98609;-73
2021/06/25 10:31:10;;;;;;;12.80;7.80;;;;;;;21.26;63.04;100874.88;4917762;28;118347;-73
2021/06/25 10:33:37;;;;;;;8.13;7.32;;;;;;;21.35;62.12;100872.09;4920724;28;99074;-73
2021/06/25 10:36:11;;;;;;;7.78;7.07;;;;;;;20.99;62.17;100867.06;4919955;28;98274;-72
2021/06/25 10:38:42;;;;;;;6.85;6.25;;;;;;;21.52;62.04;100863.78;4892972;28;101640;-73
2021/06/25 10:41:10;;;;;;;7.20;6.50;;;;;;;21.85;60.51;100871.34;4898954;28;98231;-72
2021/06/25 10:43:48;;;;;;;6.75;6.05;;;;;;;21.29;60.81;100871.44;4914917;28;98106;-72
2021/06/25 10:46:29;;;;;;;7.13;6.40;;;;;;;21.37;60.97;100863.53;4920149;28;98867;-75
2021/06/25 10:48:57;;;;;;;6.40;5.82;;;;;;;21.44;60.02;100870.13;4916144;28;100986;-72
2021/06/25 10:51:27;;;;;;;7.28;6.68;;;;;;;20.98;61.36;100868.19;4913553;28;115155;-73
2021/06/25 10:54:09;;;;;;;6.72;6.13;;;;;;;21.10;60.34;100865.56;4899137;28;98018;-72
2021/06/25 10:56:42;;;;;;;6.05;5.47;;;;;;;21.22;58.03;100862.94;4899844;28;98798;-71
2021/06/25 10:59:20;;;;;;;6.18;5.57;;;;;;;21.55;58.93;100857.63;4883429;28;98650;-76
2021/06/25 11:01:52;;;;;;;5.65;5.15;;;;;;;22.16;57.25;100854.47;4899071;28;97905;-76
2021/06/25 11:04:40;;;;;;;5.53;5.03;;;;;;;22.78;54.83;100848.03;4900809;28;98735;-75
2021/06/25 11:07:39;;;;;;;5.50;4.88;;;;;;;22.43;57.37;100855.84;4899739;28;99004;-73
2021/06/25 11:10:07;;;;;;;5.47;4.90;;;;;;;22.90;55.40;100849.22;4899556;28;99240;-75
2021/06/25 11:12:37;;;;;;;5.78;4.50;;;;;;;23.64;54.35;100852.81;4914711;28;99982;-76
2021/06/25 11:15:08;;;;;;;5.20;4.68;;;;;;;22.60;55.94;100854.88;4902067;28;97940;-73
2021/06/25 11:17:57;;;;;;;5.40;4.45;;;;;;;22.64;54.40;100853.06;4919790;28;98658;-76
2021/06/25 11:20:34;;;;;;;4.95;4.47;;;;;;;24.25;51.48;100855.44;4919117;28;98537;-77
2021/06/25 11:23:12;;;;;;;10.88;5.75;;;;;;;24.45;52.15;100857.19;4919450;28;98335;-74
2021/06/25 11:25:42;;;;;;;5.95;4.80;;;;;;;25.39;49.96;100854.88;4917688;28;97875;-76